sensor_id;sensor_type;location;lat;lon;timestamp;pressure;altitude;pressure_sealevel;temperature
19568;BMP280;9930;49.240;8.548;2023-03-23T00:00:24;99805.09;;;19.10
19568;BMP280;9930;49.240;8.548;2023-03-23T00:02:52;99792.22;;;19.02
19568;BMP280;9930;49.240;8.548;2023-03-23T00:05:19;99788.75;;;19.03
19568;BMP280;9930;49.240;8.548;2023-03-23T00:07:49;99794.75;;;19.10
19568;BMP280;9930;49.240;8.548;2023-03-23T00:10:17;99780.16;;;19.03
19568;BMP280;9930;49.240;8.548;2023-03-23T00:12:43;99781.84;;;19.07
19568;BMP280;9930;49.240;8.548;2023-03-23T00:15:15;99777.53;;;19.09
19568;BMP280;9930;49.240;8.548;2023-03-23T00:17:42;99774.94;;;19.09
19568;BMP280;9930;49.240;8.548;2023-03-23T00:20:16;99759.47;;;19.03
19568;BMP280;9930;49.240;8.548;2023-03-23T00:22:43;99756.88;;;19.06
19568;BMP280;9930;49.240;8.548;2023-03-23T00:25:13;99767.22;;;19.04
19568;BMP280;9930;49.240;8.548;2023-03-23T00:27:40;99768.09;;;19.03
19568;BMP280;9930;49.240;8.548;2023-03-23T00:30:09;99765.53;;;18.99
19568;BMP280;9930;49.240;8.548;2023-03-23T00:32:35;99747.47;;;18.94
19568;BMP280;9930;49.240;8.548;2023-03-23T00:35:01;99750.03;;;18.96
19568;BMP280;9930;49.240;8.548;2023-03-23T00:37:31;99749.19;;;18.94
19568;BMP280;9930;49.240;8.548;2023-03-23T00:39:56;99760.38;;;18.99
19568;BMP280;9930;49.240;8.548;2023-03-23T00:42:23;99756.06;;;18.96
19568;BMP280;9930;49.240;8.548;2023-03-23T00:44:50;99736.31;;;18.88
19568;BMP280;9930;49.240;8.548;2023-03-23T00:47:19;99745.81;;;18.87
19568;BMP280;9930;49.240;8.548;2023-03-23T00:49:45;99759.56;;;18.91
19568;BMP280;9930;49.240;8.548;2023-03-23T00:52:13;99751.00;;;18.84
19568;BMP280;9930;49.240;8.548;2023-03-23T00:54:39;99747.56;;;18.82
19568;BMP280;9930;49.240;8.548;2023-03-23T00:57:05;99741.53;;;18.82
19568;BMP280;9930;49.240;8.548;2023-03-23T00:59:33;99760.47;;;18.85
19568;BMP280;9930;49.240;8.548;2023-03-23T01:02:01;99757.00;;;18.85
19568;BMP280;9930;49.240;8.548;2023-03-23T01:04:29;99757.00;;;18.85
19568;BMP280;9930;49.240;8.548;2023-03-23T01:06:57;99748.44;;;18.78
19568;BMP280;9930;49.240;8.548;2023-03-23T01:09:25;99744.16;;;18.77
19568;BMP280;9930;49.240;8.548;2023-03-23T01:11:53;99736.44;;;18.72
19568;BMP280;9930;49.240;8.548;2023-03-23T01:14:23;99733.84;;;18.71
19568;BMP280;9930;49.240;8.548;2023-03-23T01:16:51;99744.16;;;18.75
19568;BMP280;9930;49.240;8.548;2023-03-23T01:19:21;99741.56;;;18.75
19568;BMP280;9930;49.240;8.548;2023-03-23T01:21:49;99731.28;;;18.66
19568;BMP280;9930;49.240;8.548;2023-03-23T01:24:15;99741.59;;;18.71
19568;BMP280;9930;49.240;8.548;2023-03-23T01:26:41;99739.00;;;18.71
19568;BMP280;9930;49.240;8.548;2023-03-23T01:29:07;99732.19;;;18.64
19568;BMP280;9930;49.240;8.548;2023-03-23T01:31:33;99731.28;;;18.69
19568;BMP280;9930;49.240;8.548;2023-03-23T01:34:02;99726.13;;;18.68
19568;BMP280;9930;49.240;8.548;2023-03-23T01:36:30;99706.38;;;18.61
19568;BMP280;9930;49.240;8.548;2023-03-23T01:38:59;99711.53;;;18.62
19568;BMP280;9930;49.240;8.548;2023-03-23T01:41:27;99713.22;;;18.65
19568;BMP280;9930;49.240;8.548;2023-03-23T01:46:45;99700.34;;;18.56
19568;BMP280;9930;49.240;8.548;2023-03-23T01:49:21;99712.38;;;18.61
19568;BMP280;9930;49.240;8.548;2023-03-23T01:52:00;99698.63;;;18.53
19568;BMP280;9930;49.240;8.548;2023-03-23T01:54:29;99695.22;;;18.50
19568;BMP280;9930;49.240;8.548;2023-03-23T01:57:05;99712.38;;;18.58
19568;BMP280;9930;49.240;8.548;2023-03-23T01:59:33;99712.38;;;18.57
19568;BMP280;9930;49.240;8.548;2023-03-23T02:02:00;99696.91;;;18.52
19568;BMP280;9930;49.240;8.548;2023-03-23T02:04:31;99690.03;;;18.54
19568;BMP280;9930;49.240;8.548;2023-03-23T02:06:59;99693.44;;;18.56
19568;BMP280;9930;49.240;8.548;2023-03-23T02:09:27;99671.06;;;18.55
19568;BMP280;9930;49.240;8.548;2023-03-23T02:11:56;99674.53;;;18.54
19568;BMP280;9930;49.240;8.548;2023-03-23T02:14:28;99671.09;;;18.54
19568;BMP280;9930;49.240;8.548;2023-03-23T02:32:12;99672.06;;;18.33
19568;BMP280;9930;49.240;8.548;2023-03-23T02:35:02;99666.06;;;18.32
19568;BMP280;9930;49.240;8.548;2023-03-23T02:37:57;99667.78;;;18.29
19568;BMP280;9930;49.240;8.548;2023-03-23T02:40:38;99666.03;;;18.34
19568;BMP280;9930;49.240;8.548;2023-03-23T02:43:10;99656.63;;;18.28
19568;BMP280;9930;49.240;8.548;2023-03-23T02:45:38;99646.31;;;18.25
19568;BMP280;9930;49.240;8.548;2023-03-23T02:48:06;99658.31;;;18.32
19568;BMP280;9930;49.240;8.548;2023-03-23T02:50:37;99656.56;;;18.36
19568;BMP280;9930;49.240;8.548;2023-03-23T02:53:13;99635.97;;;18.28
19568;BMP280;9930;49.240;8.548;2023-03-23T02:55:43;99643.66;;;18.36
19568;BMP280;9930;49.240;8.548;2023-03-23T02:58:11;99646.25;;;18.36
19568;BMP280;9930;49.240;8.548;2023-03-23T03:00:38;99638.56;;;18.27
19568;BMP280;9930;49.240;8.548;2023-03-23T03:03:09;99652.28;;;18.35
19568;BMP280;9930;49.240;8.548;2023-03-23T03:08:45;99644.56;;;18.29
19568;BMP280;9930;49.240;8.548;2023-03-23T03:11:19;99648.88;;;18.27
19568;BMP280;9930;49.240;8.548;2023-03-23T03:14:05;99642.03;;;18.20
19568;BMP280;9930;49.240;8.548;2023-03-23T03:16:43;99660.94;;;18.26
19568;BMP280;9930;49.240;8.548;2023-03-23T03:19:25;99654.91;;;18.26
19568;BMP280;9930;49.240;8.548;2023-03-23T03:21:58;99654.03;;;18.27
19568;BMP280;9930;49.240;8.548;2023-03-23T03:24:27;99650.63;;;18.22
19568;BMP280;9930;49.240;8.548;2023-03-23T03:26:59;99660.06;;;18.26
19568;BMP280;9930;49.240;8.548;2023-03-23T03:29:34;99656.63;;;18.24
19568;BMP280;9930;49.240;8.548;2023-03-23T03:32:04;99642.06;;;18.15
19568;BMP280;9930;49.240;8.548;2023-03-23T03:34:33;99648.09;;;18.12
19568;BMP280;9930;49.240;8.548;2023-03-23T03:37:03;99666.13;;;18.20
19568;BMP280;9930;49.240;8.548;2023-03-23T03:39:38;99653.25;;;18.16
19568;BMP280;9930;49.240;8.548;2023-03-23T03:42:06;99660.97;;;18.19
19568;BMP280;9930;49.240;8.548;2023-03-23T03:44:33;99648.94;;;18.13
19568;BMP280;9930;49.240;8.548;2023-03-23T03:47:02;99648.09;;;18.12
19568;BMP280;9930;49.240;8.548;2023-03-23T03:49:27;99649.84;;;18.07
19568;BMP280;9930;49.240;8.548;2023-03-23T03:51:53;99654.97;;;18.12
19568;BMP280;9930;49.240;8.548;2023-03-23T03:54:19;99654.13;;;18.13
19568;BMP280;9930;49.240;8.548;2023-03-23T03:56:45;99645.53;;;18.09
19568;BMP280;9930;49.240;8.548;2023-03-23T03:59:12;99658.41;;;18.14
19568;BMP280;9930;49.240;8.548;2023-03-23T04:01:40;99651.53;;;18.11
19568;BMP280;9930;49.240;8.548;2023-03-23T04:04:08;99642.13;;;18.04
19568;BMP280;9930;49.240;8.548;2023-03-23T04:06:34;99647.25;;;18.07
19568;BMP280;9930;49.240;8.548;2023-03-23T04:09:05;99643.00;;;18.02
19568;BMP280;9930;49.240;8.548;2023-03-23T04:11:34;99642.13;;;18.00
19568;BMP280;9930;49.240;8.548;2023-03-23T04:14:02;99649.84;;;18.06
19568;BMP280;9930;49.240;8.548;2023-03-23T04:16:28;99657.63;;;18.00
19568;BMP280;9930;49.240;8.548;2023-03-23T04:18:58;99671.38;;;18.03
19568;BMP280;9930;49.240;8.548;2023-03-23T04:21:24;99675.66;;;18.03
19568;BMP280;9930;49.240;8.548;2023-03-23T04:23:55;99670.50;;;18.03
19568;BMP280;9930;49.240;8.548;2023-03-23T04:26:27;99676.53;;;18.03
19568;BMP280;9930;49.240;8.548;2023-03-23T04:28:55;99678.25;;;18.01
19568;BMP280;9930;49.240;8.548;2023-03-23T04:31:22;99678.25;;;18.04
19568;BMP280;9930;49.240;8.548;2023-03-23T04:33:56;99682.53;;;18.05
19568;BMP280;9930;49.240;8.548;2023-03-23T04:36:25;99676.53;;;18.00
19568;BMP280;9930;49.240;8.548;2023-03-23T04:38:51;99682.53;;;18.05
19568;BMP280;9930;49.240;8.548;2023-03-23T04:41:23;99680.81;;;18.06
19568;BMP280;9930;49.240;8.548;2023-03-23T04:43:52;99673.09;;;18.00
19568;BMP280;9930;49.240;8.548;2023-03-23T04:46:22;99694.56;;;18.08
19568;BMP280;9930;49.240;8.548;2023-03-23T04:48:55;99688.56;;;18.07
19568;BMP280;9930;49.240;8.548;2023-03-23T04:51:25;99691.16;;;18.01
19568;BMP280;9930;49.240;8.548;2023-03-23T04:53:52;99690.28;;;18.02
19568;BMP280;9930;49.240;8.548;2023-03-23T04:56:18;99700.56;;;18.10
19568;BMP280;9930;49.240;8.548;2023-03-23T04:58:46;99705.75;;;18.10
19568;BMP280;9930;49.240;8.548;2023-03-23T05:01:15;99698.03;;;18.05
19568;BMP280;9930;49.240;8.548;2023-03-23T05:03:43;99710.91;;;18.10
19568;BMP280;9930;49.240;8.548;2023-03-23T05:06:10;99716.06;;;18.11
19568;BMP280;9930;49.240;8.548;2023-03-23T05:08:36;99722.94;;;18.16
19568;BMP280;9930;49.240;8.548;2023-03-23T05:11:08;99725.50;;;18.17
19568;BMP280;9930;49.240;8.548;2023-03-23T05:13:34;99722.06;;;18.18
19568;BMP280;9930;49.240;8.548;2023-03-23T05:16:05;99731.50;;;18.19
19568;BMP280;9930;49.240;8.548;2023-03-23T05:18:34;99728.91;;;18.22
19568;BMP280;9930;49.240;8.548;2023-03-23T05:21:03;99718.63;;;18.15
19568;BMP280;9930;49.240;8.548;2023-03-23T05:23:32;99726.38;;;18.16
19568;BMP280;9930;49.240;8.548;2023-03-23T05:26:01;99722.06;;;18.18
19568;BMP280;9930;49.240;8.548;2023-03-23T05:28:27;99716.91;;;18.15
19568;BMP280;9930;49.240;8.548;2023-03-23T05:30:54;99731.50;;;18.24
19568;BMP280;9930;49.240;8.548;2023-03-23T05:33:22;99725.50;;;18.19
19568;BMP280;9930;49.240;8.548;2023-03-23T05:35:51;99730.63;;;18.23
19568;BMP280;9930;49.240;8.548;2023-03-23T05:38:21;99711.75;;;18.12
19568;BMP280;9930;49.240;8.548;2023-03-23T05:40:52;99714.31;;;18.20
19568;BMP280;9930;49.240;8.548;2023-03-23T05:43:20;99724.59;;;18.24
19568;BMP280;9930;49.240;8.548;2023-03-23T05:45:46;99727.19;;;18.24
19568;BMP280;9930;49.240;8.548;2023-03-23T05:48:12;99728.06;;;18.23
19568;BMP280;9930;49.240;8.548;2023-03-23T05:50:38;99716.03;;;18.19
19568;BMP280;9930;49.240;8.548;2023-03-23T05:53:06;99720.31;;;18.25
19568;BMP280;9930;49.240;8.548;2023-03-23T05:55:37;99722.06;;;18.18
19568;BMP280;9930;49.240;8.548;2023-03-23T05:58:03;99723.78;;;18.18
19568;BMP280;9930;49.240;8.548;2023-03-23T06:00:29;99734.94;;;18.24
19568;BMP280;9930;49.240;8.548;2023-03-23T06:02:56;99723.75;;;18.19
19568;BMP280;9930;49.240;8.548;2023-03-23T06:05:22;99732.34;;;18.24
19568;BMP280;9930;49.240;8.548;2023-03-23T06:07:49;99722.91;;;18.19
19568;BMP280;9930;49.240;8.548;2023-03-23T06:10:17;99736.63;;;18.27
19568;BMP280;9930;49.240;8.548;2023-03-23T06:12:43;99737.50;;;18.27
19568;BMP280;9930;49.240;8.548;2023-03-23T06:15:11;99736.63;;;18.28
19568;BMP280;9930;49.240;8.548;2023-03-23T06:17:40;99736.66;;;18.24
19568;BMP280;9930;49.240;8.548;2023-03-23T06:20:07;99743.50;;;18.28
19568;BMP280;9930;49.240;8.548;2023-03-23T06:22:38;99744.38;;;18.30
19568;BMP280;9930;49.240;8.548;2023-03-23T06:25:11;99740.09;;;18.24
19568;BMP280;9930;49.240;8.548;2023-03-23T06:27:38;99746.09;;;18.28
19568;BMP280;9930;49.240;8.548;2023-03-23T06:30:07;99732.38;;;18.21
19568;BMP280;9930;49.240;8.548;2023-03-23T06:32:35;99751.25;;;18.34
19568;BMP280;9930;49.240;8.548;2023-03-23T06:35:09;99742.66;;;18.29
19568;BMP280;9930;49.240;8.548;2023-03-23T06:37:36;99750.38;;;18.35
19568;BMP280;9930;49.240;8.548;2023-03-23T06:40:07;99762.41;;;18.37
19568;BMP280;9930;49.240;8.548;2023-03-23T06:42:33;99741.78;;;18.33
19568;BMP280;9930;49.240;8.548;2023-03-23T06:45:00;99758.94;;;18.40
19568;BMP280;9930;49.240;8.548;2023-03-23T06:47:33;99759.78;;;18.43
19568;BMP280;9930;49.240;8.548;2023-03-23T06:50:00;99760.69;;;18.38
19568;BMP280;9930;49.240;8.548;2023-03-23T06:52:28;99755.53;;;18.38
19568;BMP280;9930;49.240;8.548;2023-03-23T06:54:54;99771.03;;;18.36
19568;BMP280;9930;49.240;8.548;2023-03-23T06:57:22;99773.56;;;18.45
19568;BMP280;9930;49.240;8.548;2023-03-23T06:59:49;99791.63;;;18.49
19568;BMP280;9930;49.240;8.548;2023-03-23T07:02:17;99798.50;;;18.48
19568;BMP280;9930;49.240;8.548;2023-03-23T07:04:42;99803.66;;;18.48
19568;BMP280;9930;49.240;8.548;2023-03-23T07:07:10;99811.44;;;18.45
19568;BMP280;9930;49.240;8.548;2023-03-23T07:09:36;99810.56;;;18.46
19568;BMP280;9930;49.240;8.548;2023-03-23T07:12:40;99805.41;;;18.44
19568;BMP280;9930;49.240;8.548;2023-03-23T07:15:07;99797.69;;;18.38
19568;BMP280;9930;49.240;8.548;2023-03-23T07:17:36;99819.16;;;18.48
19568;BMP280;9930;49.240;8.548;2023-03-23T07:20:08;99807.16;;;18.38
19568;BMP280;9930;49.240;8.548;2023-03-23T07:22:36;99826.91;;;18.47
19568;BMP280;9930;49.240;8.548;2023-03-23T07:25:02;99826.03;;;18.49
19568;BMP280;9930;49.240;8.548;2023-03-23T07:27:28;99832.03;;;18.57
19568;BMP280;9930;49.240;8.548;2023-03-23T07:29:53;99835.50;;;18.61
19568;BMP280;9930;49.240;8.548;2023-03-23T07:32:19;99839.81;;;18.62
19568;BMP280;9930;49.240;8.548;2023-03-23T07:34:49;99844.09;;;18.63
19568;BMP280;9930;49.240;8.548;2023-03-23T07:37:17;99832.03;;;18.59
19568;BMP280;9930;49.240;8.548;2023-03-23T07:39:47;99851.00;;;18.61
19568;BMP280;9930;49.240;8.548;2023-03-23T07:42:13;99844.09;;;18.60
19568;BMP280;9930;49.240;8.548;2023-03-23T07:44:39;99838.06;;;18.59
19568;BMP280;9930;49.240;8.548;2023-03-23T07:47:05;99850.09;;;18.59
19568;BMP280;9930;49.240;8.548;2023-03-23T07:49:30;99841.50;;;18.58
19568;BMP280;9930;49.240;8.548;2023-03-23T07:51:57;99831.19;;;18.54
19568;BMP280;9930;49.240;8.548;2023-03-23T07:54:24;99852.72;;;18.63
19568;BMP280;9930;49.240;8.548;2023-03-23T07:56:50;99846.66;;;18.66
19568;BMP280;9930;49.240;8.548;2023-03-23T07:59:16;99846.66;;;18.66
19568;BMP280;9930;49.240;8.548;2023-03-23T08:01:42;99849.25;;;18.69
19568;BMP280;9930;49.240;8.548;2023-03-23T08:04:08;99859.53;;;18.81
19568;BMP280;9930;49.240;8.548;2023-03-23T08:06:37;99854.34;;;18.83
19568;BMP280;9930;49.240;8.548;2023-03-23T08:09:05;99855.19;;;18.83
19568;BMP280;9930;49.240;8.548;2023-03-23T08:11:38;99864.63;;;18.93
19568;BMP280;9930;49.240;8.548;2023-03-23T08:14:04;99859.47;;;18.90
19568;BMP280;9930;49.240;8.548;2023-03-23T08:16:33;99875.78;;;19.01
19568;BMP280;9930;49.240;8.548;2023-03-23T08:19:01;99866.28;;;19.03
19568;BMP280;9930;49.240;8.548;2023-03-23T08:21:28;99868.00;;;19.04
19568;BMP280;9930;49.240;8.548;2023-03-23T08:23:56;99862.84;;;19.06
19568;BMP280;9930;49.240;8.548;2023-03-23T08:26:22;99869.69;;;19.12
19568;BMP280;9930;49.240;8.548;2023-03-23T08:28:47;99874.81;;;19.22
19568;BMP280;9930;49.240;8.548;2023-03-23T08:31:21;99867.91;;;19.20
19568;BMP280;9930;49.240;8.548;2023-03-23T08:33:47;99886.81;;;19.32
19568;BMP280;9930;49.240;8.548;2023-03-23T08:36:13;99880.72;;;19.41
19568;BMP280;9930;49.240;8.548;2023-03-23T08:38:43;99881.50;;;19.49
19568;BMP280;9930;49.240;8.548;2023-03-23T08:41:12;99884.94;;;19.57
19568;BMP280;9930;49.240;8.548;2023-03-23T08:43:38;99885.75;;;19.65
19568;BMP280;9930;49.240;8.548;2023-03-23T08:46:08;99887.41;;;19.72
19568;BMP280;9930;49.240;8.548;2023-03-23T08:48:37;99880.47;;;19.78
19568;BMP280;9930;49.240;8.548;2023-03-23T08:51:05;99868.34;;;19.81
19568;BMP280;9930;49.240;8.548;2023-03-23T08:53:32;99882.88;;;19.97
19568;BMP280;9930;49.240;8.548;2023-03-23T08:56:11;99885.38;;;20.08
19568;BMP280;9930;49.240;8.548;2023-03-23T08:58:38;99881.03;;;20.10
19568;BMP280;9930;49.240;8.548;2023-03-23T09:01:08;99885.28;;;20.16
19568;BMP280;9930;49.240;8.548;2023-03-23T09:03:34;99892.16;;;20.20
19568;BMP280;9930;49.240;8.548;2023-03-23T09:06:06;99885.22;;;20.22
19568;BMP280;9930;49.240;8.548;2023-03-23T09:08:35;99899.00;;;20.25
19568;BMP280;9930;49.240;8.548;2023-03-23T09:11:07;99906.72;;;20.30
19568;BMP280;9930;49.240;8.548;2023-03-23T09:13:37;99916.22;;;20.29
19568;BMP280;9930;49.240;8.548;2023-03-23T09:16:05;99896.44;;;20.24
19568;BMP280;9930;49.240;8.548;2023-03-23T09:18:32;99898.22;;;20.17
19568;BMP280;9930;49.240;8.548;2023-03-23T09:21:02;99900.84;;;20.13
19568;BMP280;9930;49.240;8.548;2023-03-23T09:23:35;99915.53;;;20.14
19568;BMP280;9930;49.240;8.548;2023-03-23T09:26:03;99923.34;;;20.09
19568;BMP280;9930;49.240;8.548;2023-03-23T09:28:29;99926.00;;;20.01
19568;BMP280;9930;49.240;8.548;2023-03-23T09:30:56;99925.91;;;20.09
19568;BMP280;9930;49.240;8.548;2023-03-23T09:33:23;99942.31;;;20.08
19568;BMP280;9930;49.240;8.548;2023-03-23T09:35:49;99941.47;;;20.06
19568;BMP280;9930;49.240;8.548;2023-03-23T09:38:20;99924.34;;;19.93
19568;BMP280;9930;49.240;8.548;2023-03-23T09:47:28;99939.00;;;19.94
19568;BMP280;9930;49.240;8.548;2023-03-23T09:50:10;99944.16;;;19.94
19568;BMP280;9930;49.240;8.548;2023-03-23T09:55:09;99952.84;;;19.88
19568;BMP280;9930;49.240;8.548;2023-03-23T09:58:10;99957.19;;;19.83
19568;BMP280;9930;49.240;8.548;2023-03-23T10:01:01;99958.91;;;19.83
19568;BMP280;9930;49.240;8.548;2023-03-23T10:03:37;99945.16;;;19.79
19568;BMP280;9930;49.240;8.548;2023-03-23T10:06:08;99951.13;;;19.86
19568;BMP280;9930;49.240;8.548;2023-03-23T10:08:34;99944.19;;;19.89
19568;BMP280;9930;49.240;8.548;2023-03-23T10:14:24;99934.63;;;20.00
19568;BMP280;9930;49.240;8.548;2023-03-23T10:17:13;99944.94;;;20.07
19568;BMP280;9930;49.240;8.548;2023-03-23T10:22:33;99945.69;;;20.18
19568;BMP280;9930;49.240;8.548;2023-03-23T10:25:19;99943.09;;;20.19
19568;BMP280;9930;49.240;8.548;2023-03-23T10:30:34;99941.34;;;20.21
19568;BMP280;9930;49.240;8.548;2023-03-23T10:33:04;99937.00;;;20.23
19568;BMP280;9930;49.240;8.548;2023-03-23T10:36:00;99950.81;;;20.24
19568;BMP280;9930;49.240;8.548;2023-03-23T10:38:45;99955.16;;;20.20
19568;BMP280;9930;49.240;8.548;2023-03-23T10:41:19;99942.22;;;20.19
19568;BMP280;9930;49.240;8.548;2023-03-23T10:43:47;99945.69;;;20.18
19568;BMP280;9930;49.240;8.548;2023-03-23T10:46:45;99937.91;;;20.19
19568;BMP280;9930;49.240;8.548;2023-03-23T10:49:20;99917.25;;;20.15
19568;BMP280;9930;49.240;8.548;2023-03-23T10:52:06;99949.97;;;20.22
19568;BMP280;9930;49.240;8.548;2023-03-23T10:54:48;99939.66;;;20.16
19568;BMP280;9930;49.240;8.548;2023-03-23T10:57:29;99944.84;;;20.17
19568;BMP280;9930;49.240;8.548;2023-03-23T11:00:06;99949.13;;;20.20
19568;BMP280;9930;49.240;8.548;2023-03-23T11:05:37;99950.91;;;20.13
19568;BMP280;9930;49.240;8.548;2023-03-23T11:08:20;99955.28;;;20.08
19568;BMP280;9930;49.240;8.548;2023-03-23T11:11:07;99965.66;;;20.03
19568;BMP280;9930;49.240;8.548;2023-03-23T11:13:33;99960.53;;;19.97
19568;BMP280;9930;49.240;8.548;2023-03-23T11:16:02;99963.16;;;19.94
19568;BMP280;9930;49.240;8.548;2023-03-23T11:18:42;99962.34;;;19.85
19568;BMP280;9930;49.240;8.548;2023-03-23T11:21:17;99972.72;;;19.85
19568;BMP280;9930;49.240;8.548;2023-03-23T11:23:50;99969.28;;;19.80
19568;BMP280;9930;49.240;8.548;2023-03-23T11:26:32;99948.59;;;19.78
19568;BMP280;9930;49.240;8.548;2023-03-23T11:29:12;99963.28;;;19.78
19568;BMP280;9930;49.240;8.548;2023-03-23T11:32:04;99946.06;;;19.72
19568;BMP280;9930;49.240;8.548;2023-03-23T11:34:41;99957.22;;;19.80
19568;BMP280;9930;49.240;8.548;2023-03-23T11:37:10;99951.16;;;19.83
19568;BMP280;9930;49.240;8.548;2023-03-23T11:39:53;99944.25;;;19.83
19568;BMP280;9930;49.240;8.548;2023-03-23T11:42:44;99955.47;;;19.82
19568;BMP280;9930;49.240;8.548;2023-03-23T11:48:35;99965.81;;;19.82
19568;BMP280;9930;49.240;8.548;2023-03-23T11:51:44;99967.56;;;19.80
19568;BMP280;9930;49.240;8.548;2023-03-23T11:56:49;99956.34;;;19.81
19568;BMP280;9930;49.240;8.548;2023-03-23T11:59:34;99962.38;;;19.82
19568;BMP280;9930;49.240;8.548;2023-03-23T12:03:02;99936.53;;;19.77
19568;BMP280;9930;49.240;8.548;2023-03-23T12:14:51;99930.31;;;19.99
19568;BMP280;9930;49.240;8.548;2023-03-23T12:21:05;99936.34;;;20.00
19568;BMP280;9930;49.240;8.548;2023-03-23T12:26:57;99936.28;;;20.08
19568;BMP280;9930;49.240;8.548;2023-03-23T12:29:49;99928.56;;;20.01
19568;BMP280;9930;49.240;8.548;2023-03-23T12:41:57;99901.88;;;19.95
19568;BMP280;9930;49.240;8.548;2023-03-23T12:44:41;99902.69;;;20.00
19568;BMP280;9930;49.240;8.548;2023-03-23T12:49:55;99892.41;;;19.92
19568;BMP280;9930;49.240;8.548;2023-03-23T12:55:32;99898.41;;;19.97
19568;BMP280;9930;49.240;8.548;2023-03-23T12:58:07;99894.94;;;19.98
19568;BMP280;9930;49.240;8.548;2023-03-23T13:01:04;99894.13;;;19.93
19568;BMP280;9930;49.240;8.548;2023-03-23T13:09:55;99905.34;;;19.95
19568;BMP280;9930;49.240;8.548;2023-03-23T13:12:26;99906.22;;;19.93
19568;BMP280;9930;49.240;8.548;2023-03-23T13:15:22;99897.59;;;19.92
19568;BMP280;9930;49.240;8.548;2023-03-23T13:21:19;99869.13;;;19.92
19568;BMP280;9930;49.240;8.548;2023-03-23T13:23:53;99867.38;;;19.93
19568;BMP280;9930;49.240;8.548;2023-03-23T13:26:24;99863.09;;;19.90
19568;BMP280;9930;49.240;8.548;2023-03-23T13:29:08;99872.53;;;19.97
19568;BMP280;9930;49.240;8.548;2023-03-23T13:31:37;99863.06;;;19.95
19568;BMP280;9930;49.240;8.548;2023-03-23T13:34:26;99864.84;;;19.88
19568;BMP280;9930;49.240;8.548;2023-03-23T13:37:06;99864.84;;;19.87
19568;BMP280;9930;49.240;8.548;2023-03-23T13:39:50;99870.00;;;19.91
19568;BMP280;9930;49.240;8.548;2023-03-23T13:42:30;99870.03;;;19.88
19568;BMP280;9930;49.240;8.548;2023-03-23T13:48:19;99864.84;;;19.88
19568;BMP280;9930;49.240;8.548;2023-03-23T13:53:29;99857.97;;;19.86
19568;BMP280;9930;49.240;8.548;2023-03-23T13:59:49;99850.25;;;19.81
19568;BMP280;9930;49.240;8.548;2023-03-23T14:02:40;99853.72;;;19.79
19568;BMP280;9930;49.240;8.548;2023-03-23T14:08:23;99854.59;;;19.78
19568;BMP280;9930;49.240;8.548;2023-03-23T14:10:54;99848.63;;;19.69
19568;BMP280;9930;49.240;8.548;2023-03-23T14:18:40;99854.59;;;19.78
19568;BMP280;9930;49.240;8.548;2023-03-23T14:21:21;99852.88;;;19.78
19568;BMP280;9930;49.240;8.548;2023-03-23T14:23:50;99836.53;;;19.71
19568;BMP280;9930;49.240;8.548;2023-03-23T14:26:21;99847.69;;;19.78
19568;BMP280;9930;49.240;8.548;2023-03-23T14:28:53;99834.81;;;19.72
19568;BMP280;9930;49.240;8.548;2023-03-23T14:31:29;99840.81;;;19.74
19568;BMP280;9930;49.240;8.548;2023-03-23T14:34:02;99852.84;;;19.81
19568;BMP280;9930;49.240;8.548;2023-03-23T14:36:30;99858.88;;;19.82
19568;BMP280;9930;49.240;8.548;2023-03-23T14:39:23;99851.97;;;19.82
19568;BMP280;9930;49.240;8.548;2023-03-23T14:41:52;99838.16;;;19.82
19568;BMP280;9930;49.240;8.548;2023-03-23T14:44:29;99840.72;;;19.86
19568;BMP280;9930;49.240;8.548;2023-03-23T14:47:01;99819.25;;;19.75
19568;BMP280;9930;49.240;8.548;2023-03-23T14:49:38;99838.97;;;19.87
19568;BMP280;9930;49.240;8.548;2023-03-23T14:52:16;99841.56;;;19.87
19568;BMP280;9930;49.240;8.548;2023-03-23T14:54:46;99843.28;;;19.88
19568;BMP280;9930;49.240;8.548;2023-03-23T14:57:40;99841.56;;;19.87
19568;BMP280;9930;49.240;8.548;2023-03-23T15:00:19;99845.88;;;19.88
19568;BMP280;9930;49.240;8.548;2023-03-23T15:03:00;99838.16;;;19.82
19568;BMP280;9930;49.240;8.548;2023-03-23T15:05:35;99833.88;;;19.81
19568;BMP280;9930;49.240;8.548;2023-03-23T15:08:15;99847.63;;;19.86
19568;BMP280;9930;49.240;8.548;2023-03-23T15:10:54;99851.94;;;19.84
19568;BMP280;9930;49.240;8.548;2023-03-23T15:13:22;99856.25;;;19.85
19568;BMP280;9930;49.240;8.548;2023-03-23T15:15:49;99843.38;;;19.79
19568;BMP280;9930;49.240;8.548;2023-03-23T15:18:38;99837.31;;;19.80
19568;BMP280;9930;49.240;8.548;2023-03-23T15:21:27;99859.66;;;19.88
19568;BMP280;9930;49.240;8.548;2023-03-23T15:23:56;99854.47;;;19.91
19568;BMP280;9930;49.240;8.548;2023-03-23T15:26:33;99860.47;;;19.96
19568;BMP280;9930;49.240;8.548;2023-03-23T15:32:03;99857.81;;;20.01
19568;BMP280;9930;49.240;8.548;2023-03-23T15:34:37;99844.06;;;19.96
19568;BMP280;9930;49.240;8.548;2023-03-23T15:37:27;99854.34;;;20.05
19568;BMP280;9930;49.240;8.548;2023-03-23T15:39:57;99841.38;;;20.07
19568;BMP280;9930;49.240;8.548;2023-03-23T15:42:34;99836.19;;;20.08
19568;BMP280;9930;49.240;8.548;2023-03-23T15:50:32;99822.38;;;20.08
19568;BMP280;9930;49.240;8.548;2023-03-23T15:52:58;99819.00;;;20.01
19568;BMP280;9930;49.240;8.548;2023-03-23T15:55:29;99820.66;;;20.07
19568;BMP280;9930;49.240;8.548;2023-03-23T15:57:57;99818.09;;;20.05
19568;BMP280;9930;49.240;8.548;2023-03-23T16:00:25;99814.66;;;20.03
19568;BMP280;9930;49.240;8.548;2023-03-23T16:02:59;99799.19;;;19.98
19568;BMP280;9930;49.240;8.548;2023-03-23T16:05:28;99800.88;;;20.01
19568;BMP280;9930;49.240;8.548;2023-03-23T16:07:54;99801.78;;;19.98
19568;BMP280;9930;49.240;8.548;2023-03-23T16:10:22;99801.75;;;20.00
19568;BMP280;9930;49.240;8.548;2023-03-23T16:12:49;99788.03;;;19.92
19568;BMP280;9930;49.240;8.548;2023-03-23T16:15:20;99795.72;;;19.98
19568;BMP280;9930;49.240;8.548;2023-03-23T16:17:51;99782.78;;;19.98
19568;BMP280;9930;49.240;8.548;2023-03-23T16:20:21;99780.22;;;19.96
19568;BMP280;9930;49.240;8.548;2023-03-23T16:22:49;99778.50;;;19.95
19568;BMP280;9930;49.240;8.548;2023-03-23T16:25:18;99769.97;;;19.87
19568;BMP280;9930;49.240;8.548;2023-03-23T16:27:46;99775.06;;;19.93
19568;BMP280;9930;49.240;8.548;2023-03-23T16:30:34;99763.09;;;19.85
19568;BMP280;9930;49.240;8.548;2023-03-23T16:33:00;99758.84;;;19.79
19568;BMP280;9930;49.240;8.548;2023-03-23T16:35:26;99763.94;;;19.87
19568;BMP280;9930;49.240;8.548;2023-03-23T16:37:56;99773.44;;;19.86
19568;BMP280;9930;49.240;8.548;2023-03-23T16:40:25;99765.69;;;19.85
19568;BMP280;9930;49.240;8.548;2023-03-23T16:42:52;99757.97;;;19.79